createdAt,value
2022-08-17T00:00:43.625Z,18.47
2022-08-17T00:03:15.227Z,18.93
2022-08-17T00:05:47.097Z,17.90
2022-08-17T00:08:16.042Z,22.97
2022-08-17T00:10:45.227Z,22.57
2022-08-17T00:13:16.248Z,20.87
2022-08-17T00:15:45.058Z,21.07
2022-08-17T00:19:01.528Z,18.80
2022-08-17T00:21:04.780Z,20.70
2022-08-17T00:23:39.129Z,19.57
2022-08-17T00:26:13.155Z,20.07
2022-08-17T00:28:42.714Z,17.87
2022-08-17T00:31:11.977Z,23.53
2022-08-17T00:33:43.943Z,20.03
2022-08-17T00:36:12.337Z,21.53
2022-08-17T00:38:40.739Z,16.87
2022-08-17T00:41:11.289Z,18.77
2022-08-17T00:43:42.503Z,18.70
2022-08-17T00:46:13.334Z,24.43
2022-08-17T00:48:44.093Z,21.57
2022-08-17T00:51:21.790Z,22.03
2022-08-17T00:53:52.953Z,21.73
2022-08-17T00:56:24.210Z,22.60
2022-08-17T00:58:53.754Z,20.83
2022-08-17T01:01:22.843Z,17.90
2022-08-17T01:03:53.726Z,21.27
2022-08-17T01:06:27.154Z,24.33
2022-08-17T01:08:57.484Z,23.47
2022-08-17T01:11:26.335Z,21.83
2022-08-17T01:13:55.084Z,25.53
2022-08-17T01:16:25.027Z,27.63
2022-08-17T01:18:55.698Z,22.63
2022-08-17T01:21:28.946Z,24.13
2022-08-17T01:23:59.158Z,28.13
2022-08-17T01:26:27.796Z,24.13
2022-08-17T01:28:56.300Z,32.03
2022-08-17T01:31:25.943Z,25.87
2022-08-17T01:33:54.591Z,24.70
2022-08-17T01:36:23.105Z,24.80
2022-08-17T01:38:51.553Z,25.23
2022-08-17T01:41:23.526Z,22.73
2022-08-17T01:43:53.780Z,25.97
2022-08-17T01:46:23.934Z,26.07
2022-08-17T01:48:52.307Z,25.17
2022-08-17T01:51:21.217Z,24.87
2022-08-17T01:53:52.154Z,25.60
2022-08-17T01:56:23.276Z,24.23
2022-08-17T01:58:51.882Z,28.33
2022-08-17T02:01:21.601Z,28.13
2022-08-17T02:03:59.789Z,34.97
2022-08-17T02:06:52.603Z,25.30
2022-08-17T02:09:19.977Z,26.00
2022-08-17T02:11:54.056Z,22.57
2022-08-17T02:14:23.414Z,27.10
2022-08-17T02:16:51.911Z,24.47
2022-08-17T02:19:20.934Z,23.63
2022-08-17T02:21:50.167Z,26.10
2022-08-17T02:24:58.852Z,20.53
2022-08-17T02:27:10.686Z,26.23
2022-08-17T02:29:39.015Z,29.80
2022-08-17T02:32:09.572Z,26.70
2022-08-17T02:34:38.118Z,30.70
2022-08-17T02:37:06.764Z,31.27
2022-08-17T02:39:35.099Z,27.73
2022-08-17T02:42:04.206Z,28.03
2022-08-17T02:44:38.890Z,29.10
2022-08-17T02:47:09.415Z,27.13
2022-08-17T02:49:38.048Z,29.80
2022-08-17T02:52:07.257Z,26.07
2022-08-17T02:54:35.865Z,27.23
2022-08-17T02:57:09.271Z,27.20
2022-08-17T02:59:39.548Z,28.70
2022-08-17T03:02:08.434Z,29.23
2022-08-17T03:04:36.928Z,24.97
2022-08-17T03:07:05.706Z,29.17
2022-08-17T03:09:34.014Z,30.00
2022-08-17T03:12:06.025Z,29.60
2022-08-17T03:14:38.160Z,24.47
2022-08-17T03:17:12.766Z,26.77
2022-08-17T03:19:45.866Z,25.83
2022-08-17T03:22:36.229Z,25.90
2022-08-17T03:25:02.910Z,28.93
2022-08-17T03:27:32.226Z,26.37
2022-08-17T03:30:00.519Z,29.20
2022-08-17T03:32:30.591Z,28.33
2022-08-17T03:35:01.969Z,27.63
2022-08-17T03:37:30.503Z,26.70
2022-08-17T03:39:58.949Z,28.53
2022-08-17T03:42:31.448Z,28.23
2022-08-17T03:45:02.035Z,30.33
2022-08-17T03:47:49.304Z,50.40
2022-08-17T03:50:35.737Z,30.03
2022-08-17T03:53:23.266Z,33.67
2022-08-17T03:56:09.568Z,31.47
2022-08-17T03:58:37.913Z,33.97
2022-08-17T04:01:06.777Z,36.10
2022-08-17T04:03:37.082Z,38.30
2022-08-17T04:06:05.810Z,37.07
2022-08-17T04:08:34.242Z,36.23
2022-08-17T04:11:02.651Z,34.23
2022-08-17T04:13:31.037Z,34.47
2022-08-17T04:15:59.977Z,37.30
2022-08-17T04:18:28.377Z,32.47
2022-08-17T04:20:58.042Z,33.77
2022-08-17T04:23:33.139Z,37.03
2022-08-17T04:26:02.363Z,37.63
2022-08-17T04:28:31.107Z,37.97
2022-08-17T04:30:59.550Z,40.50
2022-08-17T04:33:29.397Z,42.93
2022-08-17T04:35:59.947Z,45.97
2022-08-17T04:38:29.762Z,42.97
2022-08-17T04:41:15.803Z,42.70
2022-08-17T04:43:45.065Z,40.73
2022-08-17T04:46:17.068Z,39.47
2022-08-17T04:48:47.060Z,45.60
2022-08-17T04:51:17.843Z,44.87
2022-08-17T04:53:53.871Z,46.03
2022-08-17T04:56:23.177Z,46.80
2022-08-17T04:58:52.635Z,49.47
2022-08-17T05:01:24.117Z,42.47
2022-08-17T05:03:53.151Z,43.87
2022-08-17T05:06:23.087Z,51.77
2022-08-17T05:08:51.394Z,48.50
2022-08-17T05:11:19.860Z,50.00
2022-08-17T05:13:50.405Z,46.77
2022-08-17T05:16:19.462Z,49.27
2022-08-17T05:18:48.097Z,42.73
2022-08-17T05:21:16.783Z,44.60
2022-08-17T05:23:47.221Z,42.83
2022-08-17T05:26:25.970Z,37.40
2022-08-17T05:28:55.321Z,41.70
2022-08-17T05:31:25.974Z,42.70
2022-08-17T05:33:54.530Z,38.60
2022-08-17T05:36:42.266Z,41.70
2022-08-17T05:39:16.284Z,34.17
2022-08-17T05:41:45.496Z,32.23
2022-08-17T05:44:14.052Z,30.27
2022-08-17T05:46:43.369Z,31.17
2022-08-17T05:49:11.948Z,32.00
2022-08-17T05:51:47.977Z,37.53
2022-08-17T05:54:22.902Z,31.17
2022-08-17T05:56:58.895Z,36.70
2022-08-17T05:59:39.051Z,34.03
2022-08-17T06:02:10.003Z,32.77
2022-08-17T06:04:42.897Z,32.60
2022-08-17T06:07:14.263Z,28.87
2022-08-17T06:09:47.862Z,33.40
2022-08-17T06:12:21.718Z,28.97
2022-08-17T06:14:59.418Z,27.60
2022-08-17T06:17:28.823Z,27.67
2022-08-17T06:19:59.819Z,28.60
2022-08-17T06:22:30.199Z,26.93
2022-08-17T06:25:02.299Z,26.03
2022-08-17T06:27:43.239Z,26.27
2022-08-17T06:30:14.217Z,26.47
2022-08-17T06:32:43.904Z,24.67
2022-08-17T06:35:13.668Z,23.00
2022-08-17T06:37:50.774Z,23.83
2022-08-17T06:40:34.359Z,24.80
2022-08-17T06:43:12.547Z,24.27
2022-08-17T06:45:44.306Z,20.33
2022-08-17T06:48:15.382Z,24.47
2022-08-17T06:50:46.022Z,23.70
2022-08-17T06:53:21.052Z,26.10
2022-08-17T06:55:52.418Z,23.53
2022-08-17T06:58:22.556Z,25.37
2022-08-17T07:00:55.371Z,28.03
2022-08-17T07:03:30.849Z,29.90
2022-08-17T07:06:00.689Z,30.90
2022-08-17T07:08:35.095Z,28.47
2022-08-17T07:11:06.751Z,26.20
2022-08-17T07:13:39.785Z,23.13
2022-08-17T07:16:13.191Z,26.13
2022-08-17T07:18:41.719Z,28.07
2022-08-17T07:21:17.642Z,25.17
2022-08-17T07:23:54.671Z,22.40
2022-08-17T07:26:25.369Z,26.67
2022-08-17T07:28:56.310Z,23.27
2022-08-17T07:31:26.626Z,27.80
2022-08-17T07:34:02.918Z,26.00
2022-08-17T07:36:33.938Z,25.27
2022-08-17T07:39:03.897Z,25.23
2022-08-17T07:41:58.049Z,24.03
2022-08-17T07:44:28.428Z,24.50
2022-08-17T07:47:14.845Z,23.07
2022-08-17T07:49:46.605Z,24.13
2022-08-17T07:52:47.725Z,23.20
2022-08-17T07:55:27.189Z,25.57
2022-08-17T07:57:58.376Z,22.83
2022-08-17T08:00:31.697Z,22.73
2022-08-17T08:03:16.160Z,24.80
2022-08-17T08:05:52.318Z,23.43
2022-08-17T08:08:24.380Z,24.00
2022-08-17T08:10:59.368Z,27.17
2022-08-17T08:13:30.451Z,25.77
2022-08-17T08:16:13.440Z,21.80
2022-08-17T08:18:55.905Z,22.37
2022-08-17T08:21:30.021Z,26.37
2022-08-17T08:24:01.458Z,20.10
2022-08-17T08:26:34.267Z,23.47
2022-08-17T08:29:09.213Z,24.70
2022-08-17T08:31:46.124Z,21.23
2022-08-17T08:34:53.256Z,18.93
2022-08-17T08:37:16.296Z,21.20
2022-08-17T08:39:53.115Z,21.90
2022-08-17T08:42:26.069Z,19.77
2022-08-17T08:45:04.454Z,19.13
2022-08-17T08:47:42.231Z,20.50
2022-08-17T08:50:36.890Z,18.37
2022-08-17T08:53:08.869Z,19.60
2022-08-17T08:55:44.142Z,18.88
2022-08-17T08:58:31.908Z,18.60
2022-08-17T09:01:16.983Z,16.48
2022-08-17T09:03:54.635Z,16.60
2022-08-17T09:06:37.405Z,14.47
2022-08-17T09:09:15.246Z,13.93
2022-08-17T09:12:02.911Z,13.87
2022-08-17T09:14:43.104Z,11.10
2022-08-17T09:17:19.863Z,9.47
2022-08-17T09:19:50.329Z,9.13
2022-08-17T09:22:25.735Z,11.07
2022-08-17T09:24:57.156Z,11.95
2022-08-17T09:27:28.269Z,9.63
2022-08-17T09:30:00.670Z,9.40
2022-08-17T09:32:35.405Z,12.25
2022-08-17T09:35:07.280Z,10.65
2022-08-17T09:37:39.544Z,10.25
2022-08-17T09:40:14.036Z,9.23
2022-08-17T09:42:47.104Z,13.63
2022-08-17T09:45:25.569Z,9.43
2022-08-17T09:47:57.712Z,10.27
2022-08-17T09:51:03.487Z,11.57
2022-08-17T09:53:17.320Z,9.80
2022-08-17T09:55:53.894Z,9.15
2022-08-17T09:58:29.087Z,11.18
2022-08-17T10:01:00.976Z,8.87
2022-08-17T10:03:36.780Z,9.80
2022-08-17T10:06:09.114Z,8.40
2022-08-17T10:08:41.461Z,7.35
2022-08-17T10:11:24.627Z,6.93
2022-08-17T10:14:35.972Z,8.00
2022-08-17T10:16:58.121Z,7.40
2022-08-17T10:19:33.613Z,6.78
2022-08-17T10:22:34.643Z,7.20
2022-08-17T10:25:26.176Z,7.70
2022-08-17T10:28:00.335Z,7.20
2022-08-17T10:30:29.857Z,7.60
2022-08-17T10:32:59.433Z,7.40
2022-08-17T10:35:34.393Z,9.05
2022-08-17T10:38:24.503Z,8.52
2022-08-17T10:40:56.007Z,6.82
2022-08-17T10:43:29.649Z,6.03
2022-08-17T10:46:09.469Z,7.72
2022-08-17T10:49:13.319Z,6.38
2022-08-17T10:51:43.485Z,5.97
2022-08-17T10:54:35.470Z,6.15
2022-08-17T10:57:05.263Z,9.30
2022-08-17T10:59:50.744Z,6.53
2022-08-17T11:02:26.281Z,6.68
2022-08-17T11:05:09.226Z,7.55
2022-08-17T11:07:49.805Z,7.15
2022-08-17T11:10:23.709Z,6.85
2022-08-17T11:12:55.461Z,7.25
2022-08-17T11:15:28.360Z,7.20
2022-08-17T11:18:14.185Z,6.07
2022-08-17T11:21:06.258Z,8.65
2022-08-17T11:23:52.573Z,6.25
2022-08-17T11:26:26.233Z,8.05
2022-08-17T11:28:58.877Z,7.07
2022-08-17T11:31:39.336Z,6.53
2022-08-17T11:34:14.646Z,7.10
2022-08-17T11:36:56.051Z,8.23
2022-08-17T11:39:29.348Z,6.63
2022-08-17T11:42:02.565Z,10.55
2022-08-17T11:44:46.930Z,7.80
2022-08-17T11:47:37.465Z,7.38
2022-08-17T11:50:46.566Z,7.50
2022-08-17T11:53:29.776Z,7.93
2022-08-17T11:56:06.272Z,7.00
2022-08-17T11:58:39.825Z,8.32
2022-08-17T12:01:09.016Z,6.75
2022-08-17T12:03:56.813Z,9.35
2022-08-17T12:06:40.111Z,7.25
2022-08-17T12:09:12.274Z,7.68
2022-08-17T12:12:11.277Z,7.57
2022-08-17T12:15:05.898Z,6.97
2022-08-17T12:17:39.794Z,7.90
2022-08-17T12:20:11.990Z,6.38
2022-08-17T12:22:46.781Z,6.57
2022-08-17T12:25:19.946Z,7.05
2022-08-17T12:28:06.442Z,5.95
2022-08-17T12:30:37.781Z,6.28
2022-08-17T12:33:13.470Z,6.72
2022-08-17T12:36:00.026Z,7.57
2022-08-17T12:38:33.338Z,6.07
2022-08-17T12:41:23.368Z,6.60
2022-08-17T12:43:58.777Z,8.35
2022-08-17T12:46:28.411Z,5.75
2022-08-17T12:49:12.235Z,7.43
2022-08-17T12:51:43.927Z,7.07
2022-08-17T12:54:23.529Z,8.40
2022-08-17T12:56:51.814Z,6.05
2022-08-17T12:59:30.122Z,6.00
2022-08-17T13:02:01.122Z,5.25
2022-08-17T13:04:29.937Z,6.10
2022-08-17T13:06:59.589Z,5.15
2022-08-17T13:09:35.459Z,4.90
2022-08-17T13:12:05.080Z,6.65
2022-08-17T13:14:34.093Z,5.80
2022-08-17T13:17:09.695Z,6.88
2022-08-17T13:19:49.031Z,4.50
2022-08-17T13:22:18.347Z,5.00
2022-08-17T13:24:53.218Z,6.25
2022-08-17T13:27:22.837Z,4.90
2022-08-17T13:29:53.577Z,4.63
2022-08-17T13:32:33.491Z,6.75
2022-08-17T13:35:15.248Z,5.35
2022-08-17T13:37:57.887Z,6.15
2022-08-17T13:40:32.017Z,6.60
2022-08-17T13:43:03.322Z,4.45
2022-08-17T13:45:39.686Z,4.30
2022-08-17T13:48:13.804Z,4.78
2022-08-17T13:50:44.060Z,4.57
2022-08-17T13:53:20.920Z,5.97
2022-08-17T13:55:50.638Z,4.85
2022-08-17T13:58:23.461Z,4.60
2022-08-17T14:00:52.882Z,5.75
2022-08-17T14:03:22.992Z,6.20
2022-08-17T14:05:52.032Z,4.75
2022-08-17T14:08:22.963Z,5.30
2022-08-17T14:10:58.209Z,6.30
2022-08-17T14:13:26.631Z,5.22
2022-08-17T14:15:56.888Z,6.18
2022-08-17T14:18:55.336Z,5.97
2022-08-17T14:21:15.446Z,5.25
2022-08-17T14:23:48.987Z,7.43
2022-08-17T14:26:23.372Z,4.88
2022-08-17T14:28:56.618Z,5.25
2022-08-17T14:31:25.476Z,6.55
2022-08-17T14:33:55.327Z,5.53
2022-08-17T14:36:23.774Z,5.20
2022-08-17T14:38:52.161Z,6.07
2022-08-17T14:41:23.444Z,5.63
2022-08-17T14:43:53.562Z,5.60
2022-08-17T14:46:22.071Z,5.03
2022-08-17T14:48:57.199Z,5.22
2022-08-17T14:51:29.933Z,6.78
2022-08-17T14:53:58.458Z,6.22
2022-08-17T14:56:27.368Z,4.82
2022-08-17T14:59:00.121Z,4.70
2022-08-17T15:01:28.687Z,5.30
2022-08-17T15:03:57.156Z,5.35
2022-08-17T15:06:26.963Z,5.13
2022-08-17T15:08:55.775Z,7.40
2022-08-17T15:11:24.141Z,5.15
2022-08-17T15:13:53.384Z,5.05
2022-08-17T15:16:22.680Z,5.15
2022-08-17T15:18:52.666Z,4.10
2022-08-17T15:21:21.193Z,4.57
2022-08-17T15:23:51.107Z,4.03
2022-08-17T15:26:24.114Z,3.92
2022-08-17T15:28:57.437Z,3.88
2022-08-17T15:31:32.188Z,4.90
2022-08-17T15:34:01.455Z,4.78
2022-08-17T15:36:29.825Z,4.18
2022-08-17T15:38:59.773Z,4.00
2022-08-17T15:41:29.487Z,4.40
2022-08-17T15:43:57.764Z,5.10
2022-08-17T15:46:26.833Z,4.72
2022-08-17T15:48:59.104Z,4.80
2022-08-17T15:51:28.196Z,5.05
2022-08-17T15:53:57.612Z,4.68
2022-08-17T15:56:28.042Z,5.40
2022-08-17T15:58:56.763Z,4.88
2022-08-17T16:03:01.687Z,5.70
2022-08-17T16:04:30.199Z,4.60
2022-08-17T16:06:59.791Z,4.50
2022-08-17T16:09:28.299Z,5.35
2022-08-17T16:11:57.930Z,4.70
2022-08-17T16:14:34.929Z,4.55
2022-08-17T16:17:03.939Z,6.03
2022-08-17T16:19:32.543Z,4.53
2022-08-17T16:22:01.049Z,4.40
2022-08-17T16:24:29.742Z,4.82
2022-08-17T16:26:59.406Z,6.00
2022-08-17T16:29:28.080Z,4.63
2022-08-17T16:31:56.469Z,4.70
2022-08-17T16:34:25.054Z,4.88
2022-08-17T16:36:56.172Z,5.25
2022-08-17T16:39:27.142Z,5.07
2022-08-17T16:41:56.079Z,5.03
2022-08-17T16:44:27.644Z,6.53
2022-08-17T16:46:57.419Z,6.63
2022-08-17T16:49:36.713Z,4.70
2022-08-17T16:52:06.698Z,5.10
2022-08-17T16:54:35.784Z,6.93
2022-08-17T16:57:05.503Z,4.93
2022-08-17T16:59:40.781Z,4.43
2022-08-17T17:02:12.739Z,4.63
2022-08-17T17:04:43.661Z,5.80
2022-08-17T17:07:25.736Z,4.07
2022-08-17T17:09:55.680Z,4.78
2022-08-17T17:12:59.484Z,7.05
2022-08-17T17:15:18.775Z,5.10
2022-08-17T17:17:50.553Z,5.88
2022-08-17T17:20:21.846Z,4.18
2022-08-17T17:22:55.574Z,4.32
2022-08-17T17:25:28.210Z,6.10
2022-08-17T17:28:05.251Z,4.30
2022-08-17T17:30:39.461Z,4.17
2022-08-17T17:33:10.725Z,4.73
2022-08-17T17:35:44.440Z,4.40
2022-08-17T17:38:14.766Z,4.33
2022-08-17T17:40:45.733Z,4.07
2022-08-17T17:43:37.575Z,3.55
2022-08-17T17:46:27.870Z,5.45
2022-08-17T17:48:57.339Z,3.33
2022-08-17T17:51:55.028Z,4.45
2022-08-17T17:54:28.109Z,5.07
2022-08-17T17:57:02.215Z,4.97
2022-08-17T17:59:34.638Z,4.60
2022-08-17T18:02:09.384Z,4.05
2022-08-17T18:04:41.386Z,7.27
2022-08-17T18:07:17.333Z,5.80
2022-08-17T18:09:53.723Z,3.77
2022-08-17T18:12:35.837Z,4.20
2022-08-17T18:15:22.085Z,3.73
2022-08-17T18:18:09.144Z,4.00
2022-08-17T18:20:54.129Z,4.27
2022-08-17T18:23:28.431Z,3.97
2022-08-17T18:25:58.599Z,4.07
2022-08-17T18:28:28.332Z,6.23
2022-08-17T18:31:07.611Z,5.80
2022-08-17T18:33:36.694Z,3.47
2022-08-17T18:36:07.446Z,4.03
2022-08-17T18:38:36.616Z,4.53
2022-08-17T18:41:07.257Z,4.03
2022-08-17T18:43:52.926Z,3.53
2022-08-17T18:46:28.957Z,5.40
2022-08-17T18:48:59.500Z,3.30
2022-08-17T18:51:42.236Z,8.83
2022-08-17T18:54:16.489Z,3.57
2022-08-17T18:56:45.725Z,4.27
2022-08-17T18:59:20.213Z,3.60
2022-08-17T19:02:10.063Z,11.00
2022-08-17T19:04:41.884Z,5.87
2022-08-17T19:07:14.503Z,4.50
2022-08-17T19:09:45.429Z,5.23
2022-08-17T19:12:18.089Z,7.53
2022-08-17T19:14:46.505Z,5.87
2022-08-17T19:17:19.814Z,3.80
2022-08-17T19:19:52.502Z,7.33
2022-08-17T19:22:28.894Z,6.57
2022-08-17T19:25:03.793Z,5.03
2022-08-17T19:27:41.995Z,9.43
2022-08-17T19:30:15.532Z,3.83
2022-08-17T19:32:43.940Z,7.87
2022-08-17T19:35:17.313Z,4.03
2022-08-17T19:37:53.178Z,6.17
2022-08-17T19:40:51.239Z,7.67
2022-08-17T19:43:17.290Z,6.93
2022-08-17T19:45:51.724Z,10.10
2022-08-17T19:48:26.013Z,6.37
2022-08-17T19:50:57.037Z,8.23
2022-08-17T19:53:47.844Z,5.83
2022-08-17T19:56:23.748Z,4.60
2022-08-17T19:58:58.165Z,4.60
2022-08-17T20:01:34.904Z,5.97
2022-08-17T20:04:08.591Z,12.40
2022-08-17T20:06:39.429Z,6.13
2022-08-17T20:09:15.151Z,5.07
2022-08-17T20:11:47.022Z,8.07
2022-08-17T20:14:16.272Z,6.57
2022-08-17T20:16:44.756Z,4.93
2022-08-17T20:19:19.073Z,7.43
2022-08-17T20:21:50.501Z,7.30
2022-08-17T20:24:23.194Z,4.63
2022-08-17T20:26:58.604Z,3.80
2022-08-17T20:29:39.611Z,4.17
2022-08-17T20:32:29.673Z,6.17
2022-08-17T20:35:18.841Z,8.50
2022-08-17T20:37:53.519Z,4.73
2022-08-17T20:40:26.375Z,6.93
2022-08-17T20:42:55.279Z,7.20
2022-08-17T20:45:42.433Z,5.20
2022-08-17T20:48:36.165Z,4.00
2022-08-17T20:51:13.715Z,3.20
2022-08-17T20:54:00.676Z,6.47
2022-08-17T20:56:49.846Z,5.50
2022-08-17T20:59:39.022Z,4.60
2022-08-17T21:02:18.326Z,7.97
2022-08-17T21:05:00.194Z,9.37
2022-08-17T21:07:33.035Z,6.27
2022-08-17T21:10:13.934Z,2.47
2022-08-17T21:12:48.018Z,2.73
2022-08-17T21:15:29.489Z,4.67
2022-08-17T21:18:02.508Z,2.77
2022-08-17T21:20:33.873Z,5.67
2022-08-17T21:23:07.965Z,4.30
2022-08-17T21:25:46.385Z,8.27
2022-08-17T21:28:20.593Z,9.43
2022-08-17T21:30:54.073Z,5.77
2022-08-17T21:33:26.413Z,7.10
2022-08-17T21:35:58.718Z,9.10
2022-08-17T21:38:35.341Z,6.60
2022-08-17T21:41:03.645Z,6.00
2022-08-17T21:43:35.238Z,6.27
2022-08-17T21:46:05.313Z,6.10
2022-08-17T21:48:42.391Z,4.60
2022-08-17T21:51:12.409Z,5.13
2022-08-17T21:53:42.148Z,8.73
2022-08-17T21:56:11.470Z,6.90
2022-08-17T21:58:46.624Z,11.77
2022-08-17T22:01:21.742Z,7.23
2022-08-17T22:03:56.162Z,7.73
2022-08-17T22:06:26.392Z,4.77
2022-08-17T22:09:08.310Z,5.87
2022-08-17T22:11:52.454Z,5.33
2022-08-17T22:14:23.194Z,8.27
2022-08-17T22:17:06.538Z,7.17
2022-08-17T22:19:35.997Z,6.83
2022-08-17T22:22:05.240Z,4.20
2022-08-17T22:24:33.540Z,6.60
2022-08-17T22:27:05.826Z,3.47
2022-08-17T22:29:47.072Z,9.57
2022-08-17T22:32:31.296Z,6.23
2022-08-17T22:35:14.446Z,9.17
2022-08-17T22:37:42.844Z,6.17
2022-08-17T22:40:12.248Z,7.10
2022-08-17T22:42:47.459Z,8.07
2022-08-17T22:45:17.385Z,8.83
2022-08-17T22:47:48.975Z,7.43
2022-08-17T22:50:23.725Z,6.97
2022-08-17T22:53:16.888Z,6.30
2022-08-17T22:56:10.977Z,8.73
2022-08-17T22:59:02.297Z,8.07
2022-08-17T23:01:33.389Z,9.50
2022-08-17T23:04:02.629Z,5.67
2022-08-17T23:06:32.605Z,4.30
2022-08-17T23:09:03.657Z,12.67
2022-08-17T23:11:48.714Z,5.83
2022-08-17T23:14:19.239Z,8.77
2022-08-17T23:16:50.264Z,7.83
2022-08-17T23:19:19.593Z,20.30
2022-08-17T23:21:52.601Z,9.23
2022-08-17T23:24:23.184Z,8.63
2022-08-17T23:26:51.628Z,8.10
2022-08-17T23:29:21.567Z,9.60
2022-08-17T23:31:51.284Z,9.87
2022-08-17T23:34:20.408Z,7.63
2022-08-17T23:36:52.540Z,10.37
2022-08-17T23:39:27.350Z,7.20
2022-08-17T23:41:56.525Z,7.17
2022-08-17T23:44:24.794Z,8.80
2022-08-17T23:46:54.589Z,7.83
2022-08-17T23:49:25.379Z,7.13
2022-08-17T23:51:55.191Z,8.07
2022-08-17T23:54:25.789Z,8.20
2022-08-17T23:56:54.393Z,5.03
2022-08-17T23:59:23.955Z,7.00
